Time;durP1;ratioP1;P1;durP2;ratioP2;P2;SDS_P1;SDS_P2;PMS_P1;PMS_P2;Temp;Humidity;BMP_temperature;BMP_pressure;BME280_temperature;BME280_humidity;BME280_pressure;Samples;Min_cycle;Max_cycle;Signal;HPM_P1;HPM_P2
2022/10/08 00:01:05;;;;;;;0.30;0.30;;;;;;;;;;7385457;19;20181;-72
2022/10/08 00:03:33;;;;;;;0.50;0.50;;;;;;;;;;7387166;19;20105;-72
2022/10/08 00:06:02;;;;;;;0.30;0.30;;;;;;;;;;7386729;19;20105;-72
2022/10/08 00:08:28;;;;;;;0.73;0.70;;;;;;;;;;7387470;19;20113;-72
2022/10/08 00:10:59;;;;;;;0.30;0.30;;;;;;;;;;7385693;19;20465;-72
2022/10/08 00:13:26;;;;;;;0.30;0.30;;;;;;;;;;7388302;19;20124;-71
2022/10/08 00:15:51;;;;;;;0.30;0.30;;;;;;;;;;7384844;19;20213;-72
2022/10/08 00:18:17;;;;;;;0.50;0.50;;;;;;;;;;7387025;19;20105;-72
2022/10/08 00:20:42;;;;;;;0.30;0.30;;;;;;;;;;7384849;19;20116;-72
2022/10/08 00:23:08;;;;;;;0.30;0.30;;;;;;;;;;7387234;19;20125;-72
2022/10/08 00:25:43;;;;;;;0.20;0.20;;;;;;;;;;7382088;19;20157;-72
2022/10/08 00:28:09;;;;;;;0.30;0.30;;;;;;;;;;7385746;19;20139;-72
2022/10/08 00:30:39;;;;;;;0.20;0.20;;;;;;;;;;7382053;19;20109;-72
2022/10/08 00:33:06;;;;;;;0.22;0.22;;;;;;;;;;7383970;19;20113;-72
2022/10/08 00:35:38;;;;;;;0.20;0.20;;;;;;;;;;7382816;19;20610;-72
2022/10/08 00:38:04;;;;;;;0.30;0.30;;;;;;;;;;7383389;19;20105;-72
2022/10/08 00:40:30;;;;;;;0.20;0.20;;;;;;;;;;7383281;19;20574;-72
2022/10/08 00:42:58;;;;;;;0.30;0.30;;;;;;;;;;7384939;19;20180;-72
2022/10/08 00:45:24;;;;;;;0.20;0.20;;;;;;;;;;7383108;19;20125;-72
2022/10/08 00:47:52;;;;;;;0.30;0.30;;;;;;;;;;7384114;19;20542;-72
2022/10/08 00:50:22;;;;;;;1.90;0.52;;;;;;;;;;7382653;19;20132;-72
2022/10/08 00:52:53;;;;;;;0.30;0.30;;;;;;;;;;7382677;19;20109;-71
2022/10/08 00:55:20;;;;;;;0.30;0.30;;;;;;;;;;7382480;19;20148;-72
2022/10/08 00:57:46;;;;;;;0.30;0.30;;;;;;;;;;7378942;19;20594;-71
2022/10/08 01:00:18;;;;;;;0.30;0.30;;;;;;;;;;7377028;19;20113;-72
2022/10/08 01:02:44;;;;;;;0.30;0.30;;;;;;;;;;7377517;19;20121;-71
2022/10/08 01:05:11;;;;;;;0.30;0.30;;;;;;;;;;7377220;19;20516;-72
2022/10/08 01:08:16;;;;;;;0.30;0.30;;;;;;;;;;7379554;19;20113;-72
2022/10/08 01:11:09;;;;;;;0.30;0.30;;;;;;;;;;7382359;19;20826;-72
2022/10/08 01:13:38;;;;;;;0.20;0.20;;;;;;;;;;7391307;19;20113;-72
2022/10/08 01:16:16;;;;;;;0.60;0.60;;;;;;;;;;7393753;19;20161;-73
2022/10/08 01:18:58;;;;;;;0.30;0.30;;;;;;;;;;7389109;19;20113;-72
2022/10/08 01:21:34;;;;;;;0.30;0.30;;;;;;;;;;7388227;19;20144;-72
2022/10/08 01:25:31;;;;;;;0.30;0.30;;;;;;;;;;7389744;19;20131;-72
2022/10/08 01:27:18;;;;;;;0.30;0.30;;;;;;;;;;7390961;19;20117;-72
2022/10/08 01:29:46;;;;;;;2.08;0.77;;;;;;;;;;7382880;19;20486;-72
2022/10/08 01:32:26;;;;;;;0.30;0.30;;;;;;;;;;7384396;19;20503;-72
2022/10/08 01:34:56;;;;;;;0.30;0.30;;;;;;;;;;7382946;19;20487;-72
2022/10/08 01:37:26;;;;;;;0.50;0.50;;;;;;;;;;7384302;19;20142;-72
2022/10/08 01:39:52;;;;;;;0.30;0.30;;;;;;;;;;7379842;19;20109;-72
2022/10/08 01:42:20;;;;;;;0.30;0.30;;;;;;;;;;7383756;19;20615;-72
2022/10/08 01:44:51;;;;;;;0.30;0.30;;;;;;;;;;7389609;19;20377;-72
2022/10/08 01:47:20;;;;;;;0.30;0.30;;;;;;;;;;7390992;19;20453;-72
2022/10/08 01:49:59;;;;;;;0.30;0.30;;;;;;;;;;7390204;19;20124;-72
2022/10/08 01:52:46;;;;;;;0.20;0.20;;;;;;;;;;7390857;19;20111;-72
2022/10/08 01:55:20;;;;;;;0.30;0.30;;;;;;;;;;7387398;19;20630;-72
2022/10/08 01:57:46;;;;;;;0.30;0.30;;;;;;;;;;7384863;19;20109;-72
2022/10/08 02:00:13;;;;;;;0.30;0.30;;;;;;;;;;7390179;19;20469;-72
2022/10/08 02:02:38;;;;;;;0.30;0.30;;;;;;;;;;7391214;19;20137;-72
2022/10/08 02:05:04;;;;;;;0.20;0.20;;;;;;;;;;7385382;19;20121;-72
2022/10/08 02:07:32;;;;;;;0.30;0.30;;;;;;;;;;7388885;19;20849;-72
2022/10/08 02:10:05;;;;;;;0.30;0.30;;;;;;;;;;7388292;19;20109;-72
2022/10/08 02:12:31;;;;;;;0.30;0.30;;;;;;;;;;7389572;19;20128;-72
2022/10/08 02:14:57;;;;;;;0.20;0.20;;;;;;;;;;7388030;19;20163;-72
2022/10/08 02:18:05;;;;;;;0.20;0.20;;;;;;;;;;7390632;19;20121;-72
2022/10/08 02:20:34;;;;;;;0.30;0.30;;;;;;;;;;7391238;19;20134;-72
2022/10/08 02:23:17;;;;;;;0.40;0.40;;;;;;;;;;7390149;19;20109;-72
2022/10/08 02:25:49;;;;;;;0.30;0.30;;;;;;;;;;7390045;19;20129;-72
2022/10/08 02:28:42;;;;;;;0.20;0.20;;;;;;;;;;7390045;19;20603;-71
2022/10/08 02:31:34;;;;;;;1.02;1.02;;;;;;;;;;7388671;19;20109;-71
2022/10/08 02:34:08;;;;;;;0.30;0.30;;;;;;;;;;7389724;19;20485;-71
2022/10/08 02:36:37;;;;;;;0.30;0.30;;;;;;;;;;7390451;19;20206;-72
2022/10/08 02:39:04;;;;;;;0.30;0.30;;;;;;;;;;7388866;19;20466;-72
2022/10/08 02:41:49;;;;;;;0.30;0.30;;;;;;;;;;7388651;19;20101;-72
2022/10/08 02:44:19;;;;;;;0.30;0.30;;;;;;;;;;7389036;19;20156;-72
2022/10/08 02:46:48;;;;;;;0.30;0.30;;;;;;;;;;7389600;19;20119;-72
2022/10/08 02:49:20;;;;;;;0.30;0.30;;;;;;;;;;7391710;19;20147;-72
2022/10/08 02:51:48;;;;;;;0.30;0.30;;;;;;;;;;7389352;19;20105;-71
2022/10/08 02:54:15;;;;;;;0.30;0.30;;;;;;;;;;7389005;19;20164;-72
2022/10/08 02:56:57;;;;;;;0.30;0.30;;;;;;;;;;7388930;19;20133;-72
2022/10/08 02:59:24;;;;;;;0.20;0.20;;;;;;;;;;7387180;19;20116;-71
2022/10/08 03:01:54;;;;;;;0.30;0.30;;;;;;;;;;7388877;19;20122;-71
2022/10/08 03:04:27;;;;;;;0.30;0.30;;;;;;;;;;7387760;19;20531;-71
2022/10/08 03:06:53;;;;;;;0.30;0.30;;;;;;;;;;7389165;19;20137;-72
2022/10/08 03:09:19;;;;;;;0.30;0.30;;;;;;;;;;7389914;19;20117;-72
2022/10/08 03:11:45;;;;;;;0.30;0.30;;;;;;;;;;7388605;19;20575;-71
2022/10/08 03:14:13;;;;;;;0.30;0.30;;;;;;;;;;7389647;19;20513;-71
2022/10/08 03:16:40;;;;;;;0.40;0.40;;;;;;;;;;7392666;19;20109;-71
2022/10/08 03:19:07;;;;;;;0.30;0.30;;;;;;;;;;7389435;19;20134;-71
2022/10/08 03:21:33;;;;;;;0.30;0.30;;;;;;;;;;7390783;19;20105;-71
2022/10/08 03:23:58;;;;;;;0.30;0.30;;;;;;;;;;7389587;19;21001;-71
2022/10/08 03:26:23;;;;;;;0.30;0.30;;;;;;;;;;7395786;19;20126;-72
2022/10/08 03:28:51;;;;;;;0.43;0.43;;;;;;;;;;7391062;19;20470;-71
2022/10/08 03:31:17;;;;;;;0.20;0.20;;;;;;;;;;7391129;19;20137;-72
2022/10/08 03:33:42;;;;;;;0.30;0.30;;;;;;;;;;7392170;19;20105;-72
2022/10/08 03:36:07;;;;;;;0.20;0.20;;;;;;;;;;7392120;19;20105;-72
2022/10/08 03:38:33;;;;;;;0.20;0.20;;;;;;;;;;7389569;19;20132;-71
2022/10/08 03:40:59;;;;;;;0.30;0.30;;;;;;;;;;7387325;19;20132;-72
2022/10/08 03:43:30;;;;;;;0.50;0.50;;;;;;;;;;7389521;19;20158;-71
2022/10/08 03:45:55;;;;;;;0.30;0.30;;;;;;;;;;7386722;19;20153;-71
2022/10/08 03:48:21;;;;;;;0.30;0.30;;;;;;;;;;7389180;19;20105;-72
2022/10/08 03:50:58;;;;;;;0.40;0.40;;;;;;;;;;7385872;19;20135;-72
2022/10/08 03:53:24;;;;;;;0.30;0.30;;;;;;;;;;7388076;19;20113;-71
2022/10/08 03:55:50;;;;;;;0.30;0.30;;;;;;;;;;7384948;19;20180;-72
2022/10/08 03:58:15;;;;;;;0.30;0.30;;;;;;;;;;7388128;19;20121;-71
2022/10/08 04:00:41;;;;;;;0.40;0.40;;;;;;;;;;7385997;19;20488;-71
2022/10/08 04:03:06;;;;;;;0.35;0.35;;;;;;;;;;7387216;19;20150;-71
2022/10/08 10:26:06;;;;;;;0.30;0.30;;;;;;;;;;7390166;19;20357;-71
2022/10/08 10:28:45;;;;;;;0.30;0.30;;;;;;;;;;7389278;19;20109;-72
2022/10/08 10:31:48;;;;;;;0.50;0.50;;;;;;;;;;7386703;19;20109;-71
2022/10/08 10:34:20;;;;;;;0.57;0.57;;;;;;;;;;7387204;19;20669;-71
2022/10/08 10:36:57;;;;;;;0.50;0.50;;;;;;;;;;7388276;19;20863;-71
2022/10/08 10:39:39;;;;;;;0.30;0.30;;;;;;;;;;7387302;19;20101;-71
2022/10/08 10:42:05;;;;;;;0.32;0.32;;;;;;;;;;7388047;19;20109;-71
2022/10/08 10:44:48;;;;;;;0.35;0.35;;;;;;;;;;7388705;19;20177;-71
2022/10/08 10:47:14;;;;;;;0.30;0.30;;;;;;;;;;7389644;19;20132;-71
2022/10/08 10:49:41;;;;;;;1.73;1.63;;;;;;;;;;7382370;19;20604;-71
2022/10/08 10:52:09;;;;;;;0.40;0.40;;;;;;;;;;7387336;19;20113;-71
2022/10/08 10:55:16;;;;;;;0.93;0.93;;;;;;;;;;7387456;19;20157;-71
2022/10/08 10:58:04;;;;;;;0.60;0.60;;;;;;;;;;7386780;19;20214;-71
2022/10/08 11:00:42;;;;;;;0.40;0.40;;;;;;;;;;7385766;19;20178;-71
2022/10/08 11:03:17;;;;;;;0.30;0.30;;;;;;;;;;7388181;19;20113;-71
2022/10/08 11:05:44;;;;;;;0.30;0.30;;;;;;;;;;7389228;19;20172;-72
2022/10/08 11:08:33;;;;;;;0.50;0.50;;;;;;;;;;7388255;19;20111;-72
2022/10/08 11:10:58;;;;;;;0.30;0.30;;;;;;;;;;7386533;19;20132;-73
2022/10/08 11:13:57;;;;;;;0.52;0.52;;;;;;;;;;7389290;19;20117;-72
2022/10/08 11:16:40;;;;;;;0.32;0.32;;;;;;;;;;7388150;19;20109;-72
2022/10/08 11:19:46;;;;;;;0.30;0.30;;;;;;;;;;7391031;19;20109;-72
2022/10/08 11:22:39;;;;;;;0.30;0.30;;;;;;;;;;7383078;19;20880;-72
2022/10/08 11:25:10;;;;;;;0.90;0.90;;;;;;;;;;7384249;19;20157;-72
2022/10/08 11:27:38;;;;;;;0.20;0.20;;;;;;;;;;7385522;19;20528;-72
2022/10/08 11:30:45;;;;;;;0.30;0.30;;;;;;;;;;7384231;19;20110;-72
2022/10/08 11:33:12;;;;;;;0.30;0.30;;;;;;;;;;7386682;19;20176;-72
2022/10/08 11:36:16;;;;;;;0.30;0.30;;;;;;;;;;7384941;19;20153;-72
2022/10/08 11:38:59;;;;;;;0.38;0.38;;;;;;;;;;7389745;19;20104;-71
2022/10/08 11:41:31;;;;;;;1.17;0.82;;;;;;;;;;7387693;19;20461;-72
2022/10/08 11:44:00;;;;;;;0.30;0.30;;;;;;;;;;7388647;19;20196;-73
2022/10/08 11:46:31;;;;;;;0.30;0.30;;;;;;;;;;7387420;19;20113;-73
2022/10/08 11:49:15;;;;;;;0.30;0.30;;;;;;;;;;7387913;19;20161;-73
2022/10/08 11:51:41;;;;;;;0.50;0.50;;;;;;;;;;7388670;19;20101;-73
2022/10/08 11:54:23;;;;;;;0.28;0.28;;;;;;;;;;7385018;19;20128;-73
2022/10/08 11:56:50;;;;;;;0.20;0.20;;;;;;;;;;7390025;19;20129;-73
2022/10/08 11:59:35;;;;;;;0.82;0.82;;;;;;;;;;7388400;19;20105;-71
2022/10/08 12:02:03;;;;;;;0.40;0.40;;;;;;;;;;7386155;19;20113;-72
2022/10/08 12:04:33;;;;;;;2.40;0.90;;;;;;;;;;7386736;19;20169;-72
2022/10/08 12:07:03;;;;;;;0.30;0.30;;;;;;;;;;7387456;19;20583;-71
2022/10/08 12:10:00;;;;;;;0.30;0.30;;;;;;;;;;7387622;19;20139;-71
2022/10/08 12:12:26;;;;;;;0.30;0.30;;;;;;;;;;7389333;19;20389;-72
2022/10/08 12:14:51;;;;;;;0.20;0.20;;;;;;;;;;7386105;19;20157;-72
2022/10/08 12:17:16;;;;;;;0.47;0.47;;;;;;;;;;7389030;19;20132;-72
2022/10/08 12:19:44;;;;;;;0.30;0.30;;;;;;;;;;7385825;19;20178;-71
2022/10/08 12:22:29;;;;;;;0.50;0.50;;;;;;;;;;7385123;19;20225;-72
2022/10/08 12:24:56;;;;;;;1.23;0.65;;;;;;;;;;7387804;19;20136;-72
2022/10/08 12:27:22;;;;;;;0.30;0.30;;;;;;;;;;7385753;19;20121;-72
2022/10/08 12:29:57;;;;;;;0.30;0.30;;;;;;;;;;7386148;19;20181;-72
2022/10/08 12:32:23;;;;;;;0.30;0.30;;;;;;;;;;7386072;19;20141;-72
2022/10/08 12:34:49;;;;;;;0.30;0.30;;;;;;;;;;7385722;19;20124;-72
2022/10/08 12:37:45;;;;;;;0.30;0.30;;;;;;;;;;7386048;19;20121;-72
2022/10/08 12:40:22;;;;;;;0.30;0.30;;;;;;;;;;7386401;19;20105;-72
2022/10/08 12:42:49;;;;;;;0.30;0.30;;;;;;;;;;7384770;19;20141;-72
2022/10/08 12:45:29;;;;;;;0.20;0.20;;;;;;;;;;7384624;19;20614;-72
2022/10/08 12:48:07;;;;;;;0.25;0.25;;;;;;;;;;7386392;19;20128;-72
2022/10/08 12:51:21;;;;;;;0.22;0.22;;;;;;;;;;7386891;19;20139;-72
2022/10/08 12:53:47;;;;;;;0.30;0.30;;;;;;;;;;7383802;19;20607;-72
2022/10/08 12:56:25;;;;;;;0.75;0.75;;;;;;;;;;7386225;19;20113;-72
2022/10/08 12:58:51;;;;;;;0.40;0.40;;;;;;;;;;7386756;19;20105;-72
2022/10/08 13:01:17;;;;;;;0.20;0.20;;;;;;;;;;7383869;19;20101;-72
2022/10/08 13:03:42;;;;;;;0.30;0.30;;;;;;;;;;7385642;19;20105;-72
2022/10/08 13:06:25;;;;;;;0.30;0.30;;;;;;;;;;7388085;19;20130;-72
2022/10/08 13:08:51;;;;;;;0.30;0.30;;;;;;;;;;7393016;19;20188;-72
2022/10/08 13:11:16;;;;;;;0.30;0.30;;;;;;;;;;7391866;19;20105;-72
2022/10/08 13:13:49;;;;;;;0.30;0.30;;;;;;;;;;7392507;19;20117;-72
2022/10/08 13:16:23;;;;;;;1.98;0.90;;;;;;;;;;7392578;19;20125;-72
2022/10/08 13:18:52;;;;;;;0.30;0.30;;;;;;;;;;7394669;19;20190;-72
2022/10/08 13:21:29;;;;;;;0.30;0.30;;;;;;;;;;7391344;19;20106;-72
2022/10/08 13:23:55;;;;;;;0.20;0.20;;;;;;;;;;7393583;19;20125;-72
2022/10/08 13:26:42;;;;;;;0.22;0.22;;;;;;;;;;7392332;19;20567;-72
2022/10/08 13:29:19;;;;;;;0.30;0.30;;;;;;;;;;7392477;19;20180;-72
2022/10/08 13:31:53;;;;;;;0.43;0.40;;;;;;;;;;7392295;19;20130;-72
2022/10/08 13:34:18;;;;;;;0.30;0.30;;;;;;;;;;7387209;19;20188;-72
2022/10/08 13:36:54;;;;;;;0.50;0.50;;;;;;;;;;7390473;19;20168;-72
2022/10/08 13:39:25;;;;;;;0.40;0.40;;;;;;;;;;7390009;19;20168;-72
2022/10/08 13:41:54;;;;;;;0.30;0.30;;;;;;;;;;7388028;19;20571;-72
2022/10/08 13:44:20;;;;;;;0.30;0.30;;;;;;;;;;7388669;19;20576;-72
2022/10/08 13:46:45;;;;;;;0.30;0.30;;;;;;;;;;7391418;19;20138;-72
2022/10/08 13:49:22;;;;;;;0.30;0.30;;;;;;;;;;7385080;19;20197;-72
2022/10/08 13:51:48;;;;;;;0.30;0.30;;;;;;;;;;7390545;19;20116;-71
2022/10/08 13:54:19;;;;;;;0.20;0.20;;;;;;;;;;7388313;19;20129;-71
2022/10/08 13:56:44;;;;;;;0.45;0.45;;;;;;;;;;7390541;19;20136;-71
2022/10/08 13:59:09;;;;;;;0.30;0.30;;;;;;;;;;7392261;19;20101;-71
2022/10/08 14:01:35;;;;;;;0.30;0.30;;;;;;;;;;7389459;19;20450;-71
2022/10/08 14:04:00;;;;;;;0.75;0.75;;;;;;;;;;7387851;19;20179;-71
2022/10/08 14:06:26;;;;;;;0.30;0.30;;;;;;;;;;7390687;19;20124;-71
2022/10/08 14:08:51;;;;;;;0.20;0.20;;;;;;;;;;7388494;19;20147;-71
2022/10/08 14:11:17;;;;;;;0.30;0.30;;;;;;;;;;7387751;19;20109;-72
2022/10/08 14:13:42;;;;;;;0.30;0.30;;;;;;;;;;7388139;19;20105;-71
2022/10/08 14:16:09;;;;;;;0.30;0.30;;;;;;;;;;7392395;19;20112;-72
2022/10/08 14:18:34;;;;;;;0.40;0.40;;;;;;;;;;7390141;19;20109;-72
2022/10/08 14:20:59;;;;;;;0.30;0.30;;;;;;;;;;7389380;19;20476;-73
2022/10/08 14:23:25;;;;;;;0.30;0.30;;;;;;;;;;7390977;19;20134;-72
2022/10/08 14:25:50;;;;;;;0.30;0.30;;;;;;;;;;7390127;19;20125;-72
2022/10/08 14:28:16;;;;;;;0.30;0.30;;;;;;;;;;7391176;19;20135;-72
2022/10/08 14:30:41;;;;;;;0.30;0.30;;;;;;;;;;7389550;19;20128;-72
2022/10/08 14:33:07;;;;;;;0.30;0.30;;;;;;;;;;7390532;19;20109;-71
2022/10/08 14:35:32;;;;;;;0.30;0.30;;;;;;;;;;7390437;19;20144;-71
2022/10/08 14:37:58;;;;;;;0.30;0.30;;;;;;;;;;7390127;19;20113;-71
2022/10/08 14:40:23;;;;;;;0.30;0.30;;;;;;;;;;7390622;19;20189;-71
2022/10/08 14:42:48;;;;;;;0.30;0.30;;;;;;;;;;7387356;19;20113;-71
2022/10/08 14:45:14;;;;;;;0.30;0.30;;;;;;;;;;7388277;19;20147;-71
2022/10/08 14:47:39;;;;;;;0.30;0.30;;;;;;;;;;7391291;19;20136;-71
2022/10/08 14:50:06;;;;;;;0.30;0.30;;;;;;;;;;7388106;19;20109;-72
2022/10/08 14:52:31;;;;;;;0.22;0.22;;;;;;;;;;7389458;19;20121;-72
2022/10/08 14:54:57;;;;;;;0.30;0.30;;;;;;;;;;7388507;19;20627;-72
2022/10/08 14:57:22;;;;;;;0.57;0.57;;;;;;;;;;7390766;19;20647;-71
2022/10/08 14:59:47;;;;;;;0.60;0.60;;;;;;;;;;7387894;19;20105;-73
2022/10/08 15:02:13;;;;;;;0.32;0.32;;;;;;;;;;7388375;19;20148;-72
2022/10/08 15:04:38;;;;;;;0.30;0.30;;;;;;;;;;7389657;19;20124;-71
2022/10/08 15:07:03;;;;;;;0.30;0.30;;;;;;;;;;7390893;19;20118;-71
2022/10/08 15:09:30;;;;;;;0.30;0.30;;;;;;;;;;7391052;19;20218;-71
2022/10/08 15:11:56;;;;;;;0.30;0.30;;;;;;;;;;7388096;19;20105;-72
2022/10/08 15:14:21;;;;;;;0.30;0.30;;;;;;;;;;7390500;19;20152;-72
2022/10/08 15:16:46;;;;;;;0.20;0.20;;;;;;;;;;7390684;19;20125;-71
2022/10/08 15:19:11;;;;;;;0.30;0.30;;;;;;;;;;7390487;19;20109;-71
2022/10/08 15:21:37;;;;;;;0.30;0.30;;;;;;;;;;7387284;19;20597;-71
2022/10/08 15:24:02;;;;;;;0.30;0.30;;;;;;;;;;7387625;19;20121;-71
2022/10/08 15:26:28;;;;;;;0.30;0.30;;;;;;;;;;7387838;19;20121;-71
2022/10/08 15:28:53;;;;;;;0.30;0.30;;;;;;;;;;7386214;19;20855;-71
2022/10/08 15:31:23;;;;;;;0.20;0.20;;;;;;;;;;7386892;19;20126;-71
2022/10/08 15:33:50;;;;;;;0.30;0.30;;;;;;;;;;7388117;19;20120;-71
2022/10/08 15:36:23;;;;;;;0.30;0.30;;;;;;;;;;7388741;19;20117;-72
2022/10/08 15:39:06;;;;;;;0.30;0.30;;;;;;;;;;7389845;19;20121;-71
2022/10/08 15:41:36;;;;;;;0.30;0.30;;;;;;;;;;7388728;19;20134;-71
2022/10/08 15:44:17;;;;;;;0.30;0.30;;;;;;;;;;7387761;19;20152;-71
2022/10/08 15:46:45;;;;;;;0.30;0.30;;;;;;;;;;7387870;19;20109;-71
2022/10/08 15:49:11;;;;;;;0.30;0.30;;;;;;;;;;7387258;19;20642;-72
2022/10/08 15:51:36;;;;;;;0.30;0.30;;;;;;;;;;7386742;19;20512;-71
2022/10/08 15:54:02;;;;;;;0.30;0.30;;;;;;;;;;7388584;19;20631;-72
2022/10/08 15:56:28;;;;;;;0.30;0.30;;;;;;;;;;7386907;19;20148;-71
2022/10/08 15:58:53;;;;;;;0.30;0.30;;;;;;;;;;7387194;19;20113;-71
2022/10/08 16:01:21;;;;;;;0.30;0.30;;;;;;;;;;7386082;19;20129;-71
2022/10/08 16:03:48;;;;;;;0.30;0.30;;;;;;;;;;7386915;19;20120;-71
2022/10/08 16:06:16;;;;;;;0.30;0.30;;;;;;;;;;7387205;19;20138;-71
2022/10/08 16:08:43;;;;;;;0.30;0.30;;;;;;;;;;7387114;19;20105;-71
2022/10/08 16:11:10;;;;;;;0.30;0.30;;;;;;;;;;7386291;19;20109;-71
2022/10/08 16:13:36;;;;;;;0.30;0.30;;;;;;;;;;7382122;19;20116;-71
2022/10/08 16:16:01;;;;;;;0.30;0.30;;;;;;;;;;7386602;19;20113;-71
2022/10/08 16:18:27;;;;;;;0.20;0.20;;;;;;;;;;7383922;19;20137;-71
2022/10/08 16:20:52;;;;;;;0.30;0.30;;;;;;;;;;7382848;19;20121;-71
2022/10/08 16:23:17;;;;;;;0.30;0.30;;;;;;;;;;7385442;19;20342;-71
2022/10/08 16:25:42;;;;;;;0.30;0.30;;;;;;;;;;7382682;19;20604;-72
2022/10/08 16:28:08;;;;;;;0.30;0.30;;;;;;;;;;7384027;19;20787;-72
2022/10/08 16:30:34;;;;;;;0.30;0.30;;;;;;;;;;7383564;19;20146;-71
2022/10/08 16:32:59;;;;;;;0.30;0.30;;;;;;;;;;7383971;19;20117;-71
2022/10/08 16:35:24;;;;;;;0.30;0.30;;;;;;;;;;7382991;19;20138;-72
2022/10/08 16:37:52;;;;;;;0.30;0.30;;;;;;;;;;7385211;19;20328;-72
2022/10/08 16:40:18;;;;;;;0.30;0.30;;;;;;;;;;7382746;19;20113;-71
2022/10/08 16:42:43;;;;;;;0.30;0.30;;;;;;;;;;7382753;19;20116;-71
2022/10/08 16:45:08;;;;;;;0.30;0.30;;;;;;;;;;7384981;19;20121;-71
2022/10/08 16:47:34;;;;;;;0.30;0.30;;;;;;;;;;7388508;19;20177;-72
2022/10/08 16:49:59;;;;;;;0.30;0.30;;;;;;;;;;7383638;19;20631;-71
2022/10/08 16:52:24;;;;;;;0.30;0.30;;;;;;;;;;7384709;19;20128;-71
2022/10/08 16:54:51;;;;;;;0.30;0.30;;;;;;;;;;7382923;19;20591;-71
2022/10/08 16:57:16;;;;;;;0.40;0.40;;;;;;;;;;7383764;19;20196;-71
2022/10/08 16:59:41;;;;;;;1.38;1.00;;;;;;;;;;7384625;19;20495;-71
2022/10/08 17:02:09;;;;;;;0.40;0.40;;;;;;;;;;7381805;19;20125;-71
2022/10/08 17:04:38;;;;;;;0.30;0.30;;;;;;;;;;7382482;19;20125;-71
2022/10/08 17:07:04;;;;;;;0.30;0.30;;;;;;;;;;7384749;19;20113;-71
2022/10/08 17:09:29;;;;;;;0.20;0.20;;;;;;;;;;7385989;19;20125;-71
2022/10/08 17:11:54;;;;;;;0.30;0.30;;;;;;;;;;7379139;19;20102;-72
2022/10/08 17:14:20;;;;;;;0.30;0.30;;;;;;;;;;7382074;19;20507;-71
2022/10/08 17:16:47;;;;;;;0.30;0.30;;;;;;;;;;7383401;19;20154;-71
2022/10/08 17:19:12;;;;;;;0.30;0.30;;;;;;;;;;7377540;19;20124;-72
2022/10/08 17:21:38;;;;;;;0.20;0.20;;;;;;;;;;7377604;19;20113;-72
2022/10/08 17:24:04;;;;;;;0.30;0.30;;;;;;;;;;7376727;19;20197;-72
2022/10/08 17:26:30;;;;;;;0.30;0.30;;;;;;;;;;7376940;19;20482;-72
2022/10/08 17:28:56;;;;;;;0.30;0.30;;;;;;;;;;7377453;19;20132;-72
2022/10/08 17:31:28;;;;;;;0.30;0.30;;;;;;;;;;7371534;19;20125;-72
2022/10/08 17:33:53;;;;;;;0.30;0.30;;;;;;;;;;7382315;19;20628;-72
2022/10/08 17:36:20;;;;;;;0.30;0.30;;;;;;;;;;7383298;19;20129;-72
2022/10/08 17:38:47;;;;;;;0.30;0.30;;;;;;;;;;7385090;19;20140;-72
2022/10/08 17:41:20;;;;;;;0.30;0.30;;;;;;;;;;7380839;19;20105;-72
2022/10/08 17:43:45;;;;;;;0.30;0.30;;;;;;;;;;7382323;19;20115;-72
2022/10/08 17:46:16;;;;;;;0.30;0.30;;;;;;;;;;7383047;19;20118;-72
2022/10/08 17:48:42;;;;;;;0.20;0.20;;;;;;;;;;7382565;19;20450;-72
2022/10/08 17:51:10;;;;;;;0.30;0.30;;;;;;;;;;7381922;19;20105;-72
2022/10/08 17:53:35;;;;;;;0.30;0.30;;;;;;;;;;7387559;19;20514;-72
2022/10/08 17:56:06;;;;;;;0.30;0.30;;;;;;;;;;7390927;19;20717;-72
2022/10/08 17:58:31;;;;;;;0.30;0.30;;;;;;;;;;7386945;19;20148;-72
2022/10/08 18:01:14;;;;;;;1.00;1.00;;;;;;;;;;7389247;19;20137;-73
2022/10/08 18:03:41;;;;;;;0.20;0.20;;;;;;;;;;7389522;19;20152;-72
2022/10/08 18:06:08;;;;;;;0.30;0.30;;;;;;;;;;7389200;19;20592;-72
2022/10/08 18:08:34;;;;;;;0.30;0.30;;;;;;;;;;7389256;19;20125;-72
2022/10/08 18:11:01;;;;;;;0.30;0.30;;;;;;;;;;7388068;19;20098;-72
2022/10/08 18:13:26;;;;;;;0.30;0.30;;;;;;;;;;7389398;19;20110;-72
2022/10/08 18:15:51;;;;;;;0.20;0.20;;;;;;;;;;7387181;19;20164;-72
2022/10/08 18:18:17;;;;;;;0.20;0.20;;;;;;;;;;7389067;19;20105;-72
2022/10/08 18:20:56;;;;;;;0.30;0.30;;;;;;;;;;7389725;19;20109;-72
2022/10/08 18:23:22;;;;;;;0.30;0.30;;;;;;;;;;7388474;19;20139;-72
2022/10/08 18:25:48;;;;;;;0.30;0.30;;;;;;;;;;7386817;19;20164;-72
2022/10/08 18:28:13;;;;;;;0.30;0.30;;;;;;;;;;7389495;19;20109;-72
2022/10/08 18:30:39;;;;;;;0.77;0.77;;;;;;;;;;7388592;19;20114;-72
2022/10/08 18:33:05;;;;;;;0.30;0.30;;;;;;;;;;7388814;19;20121;-72
2022/10/08 18:35:30;;;;;;;0.20;0.20;;;;;;;;;;7388317;19;20461;-72
2022/10/08 18:37:56;;;;;;;0.30;0.30;;;;;;;;;;7388898;19;20105;-72
2022/10/08 18:40:22;;;;;;;0.25;0.25;;;;;;;;;;7386961;19;20146;-72
2022/10/08 18:42:47;;;;;;;0.30;0.30;;;;;;;;;;7389368;19;20130;-72
2022/10/08 18:45:12;;;;;;;0.30;0.30;;;;;;;;;;7386419;19;20528;-72
2022/10/08 18:47:38;;;;;;;0.30;0.30;;;;;;;;;;7390421;19;20114;-72
2022/10/08 18:50:03;;;;;;;0.30;0.30;;;;;;;;;;7387276;19;20117;-72
2022/10/08 18:52:32;;;;;;;0.30;0.30;;;;;;;;;;7390426;19;20121;-72
2022/10/08 18:54:58;;;;;;;0.40;0.40;;;;;;;;;;7386003;19;20144;-72
2022/10/08 18:57:24;;;;;;;0.30;0.30;;;;;;;;;;7388993;19;20122;-72
2022/10/08 18:59:49;;;;;;;0.30;0.30;;;;;;;;;;7386577;19;20109;-72
2022/10/08 19:02:14;;;;;;;0.30;0.30;;;;;;;;;;7387554;19;20098;-72
2022/10/08 19:04:40;;;;;;;0.20;0.20;;;;;;;;;;7383551;19;20160;-72
2022/10/08 19:07:05;;;;;;;0.28;0.28;;;;;;;;;;7386696;19;20160;-72
2022/10/08 19:09:31;;;;;;;0.30;0.30;;;;;;;;;;7387647;19;20158;-72
2022/10/08 19:11:56;;;;;;;0.30;0.30;;;;;;;;;;7386341;19;20460;-72
2022/10/08 19:14:22;;;;;;;0.30;0.30;;;;;;;;;;7386029;19;20144;-72
2022/10/08 19:16:48;;;;;;;0.30;0.30;;;;;;;;;;7386027;19;20594;-72
2022/10/08 19:19:17;;;;;;;0.30;0.30;;;;;;;;;;7386189;19;20117;-72
2022/10/08 19:21:43;;;;;;;0.30;0.30;;;;;;;;;;7385143;19;20619;-72
2022/10/08 19:24:14;;;;;;;0.30;0.30;;;;;;;;;;7386541;19;20161;-72
2022/10/08 19:26:40;;;;;;;0.30;0.30;;;;;;;;;;7387724;19;20617;-72
2022/10/08 19:29:05;;;;;;;0.55;0.55;;;;;;;;;;7388696;19;20101;-72
2022/10/08 19:31:32;;;;;;;0.30;0.30;;;;;;;;;;7381146;19;20174;-72
2022/10/08 19:34:00;;;;;;;0.30;0.30;;;;;;;;;;7385197;19;20228;-71
2022/10/08 19:36:27;;;;;;;0.30;0.30;;;;;;;;;;7384985;19;20109;-72
2022/10/08 19:38:54;;;;;;;0.30;0.30;;;;;;;;;;7381978;19;20453;-72
2022/10/08 19:41:19;;;;;;;0.30;0.30;;;;;;;;;;7376743;19;20141;-72
2022/10/08 19:43:45;;;;;;;0.30;0.30;;;;;;;;;;7377688;19;20567;-72
2022/10/08 19:46:10;;;;;;;0.30;0.30;;;;;;;;;;7379290;19;20112;-72
2022/10/08 19:48:35;;;;;;;0.30;0.30;;;;;;;;;;7379000;19;20117;-72
2022/10/08 19:51:05;;;;;;;0.40;0.40;;;;;;;;;;7377640;19;20122;-71
2022/10/08 19:53:31;;;;;;;0.30;0.30;;;;;;;;;;7380121;19;20105;-71
2022/10/08 19:55:57;;;;;;;0.30;0.30;;;;;;;;;;7385323;19;20117;-71
2022/10/08 19:58:22;;;;;;;0.38;0.38;;;;;;;;;;7385596;19;20116;-71
2022/10/08 20:00:57;;;;;;;0.30;0.30;;;;;;;;;;7389229;19;20104;-72
2022/10/08 20:03:22;;;;;;;0.30;0.30;;;;;;;;;;7386701;19;20459;-72
2022/10/08 20:05:47;;;;;;;0.30;0.30;;;;;;;;;;7382721;19;20212;-72
2022/10/08 20:08:13;;;;;;;0.30;0.30;;;;;;;;;;7385720;19;20113;-72
2022/10/08 20:10:39;;;;;;;0.30;0.30;;;;;;;;;;7386605;19;20469;-71
2022/10/08 20:13:04;;;;;;;0.30;0.30;;;;;;;;;;7385141;19;20125;-71
2022/10/08 20:15:30;;;;;;;0.30;0.30;;;;;;;;;;7385186;19;20121;-72
2022/10/08 20:17:55;;;;;;;0.30;0.30;;;;;;;;;;7383233;19;20461;-72
2022/10/08 20:20:20;;;;;;;0.30;0.30;;;;;;;;;;7377979;19;20117;-72
2022/10/08 20:22:46;;;;;;;0.30;0.30;;;;;;;;;;7382474;19;20112;-72
2022/10/08 20:25:11;;;;;;;0.30;0.30;;;;;;;;;;7381740;19;20164;-72
2022/10/08 20:27:36;;;;;;;0.30;0.30;;;;;;;;;;7385660;19;20101;-72
2022/10/08 20:30:03;;;;;;;0.30;0.30;;;;;;;;;;7375901;19;20476;-72
2022/10/08 20:32:29;;;;;;;0.30;0.30;;;;;;;;;;7385173;19;20105;-72
2022/10/08 20:34:54;;;;;;;0.30;0.30;;;;;;;;;;7382681;19;20595;-72
2022/10/08 20:37:19;;;;;;;0.30;0.30;;;;;;;;;;7383418;19;20113;-72
2022/10/08 20:39:45;;;;;;;0.30;0.30;;;;;;;;;;7379856;19;20132;-72
2022/10/08 20:42:10;;;;;;;0.30;0.30;;;;;;;;;;7383735;19;20457;-72
2022/10/08 20:44:35;;;;;;;0.20;0.20;;;;;;;;;;7383262;19;20240;-72
2022/10/08 20:47:01;;;;;;;0.30;0.30;;;;;;;;;;7382965;19;20124;-71
2022/10/08 20:49:29;;;;;;;0.30;0.30;;;;;;;;;;7386448;19;20125;-72
2022/10/08 20:51:54;;;;;;;0.30;0.30;;;;;;;;;;7383966;19;20138;-71
2022/10/08 20:54:19;;;;;;;0.30;0.30;;;;;;;;;;7384417;19;20160;-72
2022/10/08 20:56:45;;;;;;;0.30;0.30;;;;;;;;;;7383145;19;20118;-71
2022/10/08 20:59:14;;;;;;;0.30;0.30;;;;;;;;;;7382789;19;20117;-72
2022/10/08 21:01:39;;;;;;;0.30;0.30;;;;;;;;;;7373995;19;20127;-72
2022/10/08 21:04:05;;;;;;;0.30;0.30;;;;;;;;;;7380651;19;20514;-72
2022/10/08 21:06:35;;;;;;;0.30;0.30;;;;;;;;;;7381736;19;20101;-72
2022/10/08 21:09:01;;;;;;;0.30;0.30;;;;;;;;;;7382362;19;20479;-72
2022/10/08 21:11:28;;;;;;;0.30;0.30;;;;;;;;;;7378675;19;20124;-72
2022/10/08 21:13:54;;;;;;;0.20;0.20;;;;;;;;;;7384338;19;20848;-71
2022/10/08 21:16:25;;;;;;;0.20;0.20;;;;;;;;;;7382763;19;20137;-72
2022/10/08 21:18:52;;;;;;;0.30;0.30;;;;;;;;;;7382445;19;20101;-72